createdAt,value
2019-02-06T00:01:12.941Z,1.80
2019-02-06T00:02:17.840Z,1.90
2019-02-06T00:03:22.952Z,1.90
2019-02-06T00:04:27.411Z,2.00
2019-02-06T00:05:31.668Z,2.00
2019-02-06T00:06:36.035Z,2.00
2019-02-06T00:07:40.393Z,2.00
2019-02-06T00:08:44.611Z,2.00
2019-02-06T00:09:49.155Z,2.00
2019-02-06T00:10:54.109Z,1.90
2019-02-06T00:11:58.432Z,1.90
2019-02-06T00:13:02.664Z,1.90
2019-02-06T00:14:07.016Z,1.90
2019-02-06T00:15:11.303Z,1.90
2019-02-06T00:16:15.836Z,1.90
2019-02-06T00:17:20.179Z,1.90
2019-02-06T00:18:24.421Z,1.90
2019-02-06T00:19:28.816Z,1.90
2019-02-06T00:20:33.082Z,1.90
2019-02-06T00:21:37.308Z,1.70
2019-02-06T00:22:41.450Z,1.80
2019-02-06T00:23:45.595Z,1.90
2019-02-06T00:24:50.437Z,1.90
2019-02-06T00:25:54.840Z,1.90
2019-02-06T00:26:59.035Z,1.90
2019-02-06T00:28:03.428Z,1.80
2019-02-06T00:29:07.700Z,1.60
2019-02-06T00:30:12.717Z,1.70
2019-02-06T00:31:17.349Z,1.70
2019-02-06T00:32:21.589Z,1.80
2019-02-06T00:33:25.849Z,1.80
2019-02-06T00:34:30.100Z,1.90
2019-02-06T00:35:34.263Z,1.80
2019-02-06T00:36:38.532Z,1.70
2019-02-06T00:37:42.788Z,1.70
2019-02-06T00:38:46.973Z,1.70
2019-02-06T00:39:52.011Z,1.70
2019-02-06T00:40:56.346Z,1.80
2019-02-06T00:42:01.102Z,1.80
2019-02-06T00:43:05.701Z,1.90
2019-02-06T00:44:10.037Z,1.70
2019-02-06T00:45:14.631Z,1.60
2019-02-06T00:46:19.111Z,1.70
2019-02-06T00:47:23.324Z,1.80
2019-02-06T00:48:27.583Z,1.80
2019-02-06T00:49:31.899Z,1.90
2019-02-06T00:50:36.137Z,1.80
2019-02-06T00:51:40.289Z,1.90
2019-02-06T00:52:44.475Z,1.80
2019-02-06T00:53:48.754Z,1.80
2019-02-06T00:54:53.151Z,1.80
2019-02-06T00:55:57.396Z,1.80
2019-02-06T00:57:01.932Z,1.90
2019-02-06T00:58:06.417Z,1.80
2019-02-06T00:59:10.715Z,1.70
2019-02-06T01:00:20.449Z,1.80
2019-02-06T01:01:24.813Z,1.80
2019-02-06T01:02:29.136Z,1.60
2019-02-06T01:03:33.456Z,1.70
2019-02-06T01:04:37.656Z,1.60
2019-02-06T01:05:41.947Z,1.70
2019-02-06T01:06:46.214Z,1.70
2019-02-06T01:07:50.681Z,1.70
2019-02-06T01:08:55.063Z,1.70
2019-02-06T01:09:59.305Z,1.70
2019-02-06T01:11:03.569Z,1.70
2019-02-06T01:12:07.922Z,1.70
2019-02-06T01:13:12.295Z,1.70
2019-02-06T01:14:16.999Z,1.60
2019-02-06T01:15:21.434Z,1.60
2019-02-06T01:16:25.715Z,1.60
2019-02-06T01:17:30.114Z,1.60
2019-02-06T01:18:34.437Z,1.70
2019-02-06T01:19:38.758Z,1.70
2019-02-06T01:20:42.991Z,1.70
2019-02-06T01:21:47.272Z,1.70
2019-02-06T01:22:51.554Z,1.80
2019-02-06T01:23:55.764Z,1.60
2019-02-06T01:24:59.905Z,1.60
2019-02-06T01:26:04.215Z,1.60
2019-02-06T01:27:08.455Z,1.60
2019-02-06T01:28:12.735Z,1.70
2019-02-06T01:29:17.201Z,1.60
2019-02-06T01:30:24.141Z,1.70
2019-02-06T01:31:29.994Z,1.80
2019-02-06T01:32:34.257Z,1.70
2019-02-06T01:33:38.390Z,1.60
2019-02-06T01:34:42.747Z,1.60
2019-02-06T01:35:50.015Z,1.50
2019-02-06T01:36:52.829Z,1.40
2019-02-06T01:37:57.161Z,1.40
2019-02-06T01:39:01.362Z,1.50
2019-02-06T01:40:06.927Z,1.50
2019-02-06T01:41:11.505Z,1.50
2019-02-06T01:42:15.773Z,1.50
2019-02-06T01:43:20.051Z,1.60
2019-02-06T01:44:24.340Z,1.50
2019-02-06T01:45:28.607Z,1.60
2019-02-06T01:46:33.291Z,1.60
2019-02-06T01:47:37.556Z,1.70
2019-02-06T01:48:41.797Z,1.70
2019-02-06T01:49:46.061Z,1.70
2019-02-06T01:50:50.335Z,1.70
2019-02-06T01:51:54.566Z,1.70
2019-02-06T01:52:58.757Z,1.60
2019-02-06T01:54:03.065Z,1.60
2019-02-06T01:55:08.236Z,1.60
2019-02-06T01:56:12.506Z,1.70
2019-02-06T01:57:16.802Z,1.80
2019-02-06T01:58:21.153Z,1.80
2019-02-06T01:59:25.555Z,1.80
2019-02-06T02:00:29.882Z,1.80
2019-02-06T02:01:34.634Z,1.70
2019-02-06T02:02:39.267Z,1.60
2019-02-06T02:03:43.525Z,1.50
2019-02-06T02:04:47.803Z,1.60
2019-02-06T02:06:01.709Z,1.70
2019-02-06T02:06:57.991Z,1.70
2019-02-06T02:08:02.231Z,1.70
2019-02-06T02:09:15.027Z,1.70
2019-02-06T02:10:40.169Z,1.60
2019-02-06T02:11:44.499Z,1.60
2019-02-06T02:12:49.445Z,1.60
2019-02-06T02:13:53.777Z,1.50
2019-02-06T02:14:57.972Z,1.50
2019-02-06T02:16:02.316Z,1.60
2019-02-06T02:17:06.622Z,1.60
2019-02-06T02:18:10.776Z,1.60
2019-02-06T02:19:15.223Z,1.60
2019-02-06T02:20:21.182Z,1.60
2019-02-06T02:21:25.593Z,1.60
2019-02-06T02:22:29.743Z,1.60
2019-02-06T02:23:34.128Z,1.50
2019-02-06T02:24:38.558Z,1.50
2019-02-06T02:25:42.987Z,1.50
2019-02-06T02:26:47.307Z,1.50
2019-02-06T02:27:51.614Z,1.50
2019-02-06T02:28:56.200Z,1.60
2019-02-06T02:30:00.486Z,1.60
2019-02-06T02:31:04.998Z,1.70
2019-02-06T02:32:09.355Z,1.70
2019-02-06T02:33:13.502Z,1.80
2019-02-06T02:34:17.618Z,1.80
2019-02-06T02:35:21.783Z,1.70
2019-02-06T02:36:26.184Z,1.70
2019-02-06T02:37:30.545Z,1.70
2019-02-06T02:38:34.705Z,1.60
2019-02-06T02:39:38.995Z,1.60
2019-02-06T02:40:43.268Z,1.70
2019-02-06T02:41:47.797Z,1.70
2019-02-06T02:42:52.744Z,1.70
2019-02-06T02:43:56.891Z,1.70
2019-02-06T02:45:01.167Z,1.70
2019-02-06T02:46:05.721Z,1.60
2019-02-06T02:47:10.003Z,1.50
2019-02-06T02:48:14.301Z,1.50
2019-02-06T02:49:18.605Z,1.50
2019-02-06T02:50:22.767Z,1.60
2019-02-06T02:51:27.145Z,1.60
2019-02-06T02:52:31.458Z,1.50
2019-02-06T02:53:35.743Z,1.60
2019-02-06T02:54:40.030Z,1.60
2019-02-06T02:55:44.235Z,1.60
2019-02-06T02:56:48.516Z,1.50
2019-02-06T02:57:53.160Z,1.50
2019-02-06T02:58:57.470Z,1.60
2019-02-06T03:00:01.759Z,1.60
2019-02-06T03:01:24.063Z,1.50
2019-02-06T03:02:47.337Z,1.60
2019-02-06T03:04:00.782Z,1.50
2019-02-06T03:05:09.986Z,1.50
2019-02-06T03:06:27.218Z,1.50
2019-02-06T03:07:20.099Z,1.40
2019-02-06T03:08:24.280Z,1.50
2019-02-06T03:09:28.885Z,1.40
2019-02-06T03:10:33.518Z,1.40
2019-02-06T03:11:38.254Z,1.30
2019-02-06T03:12:42.537Z,1.40
2019-02-06T03:13:46.850Z,1.40
2019-02-06T03:14:51.176Z,1.40
2019-02-06T03:15:55.436Z,1.40
2019-02-06T03:17:03.067Z,1.40
2019-02-06T03:18:05.723Z,1.40
2019-02-06T03:19:10.005Z,1.40
2019-02-06T03:20:14.589Z,1.40
2019-02-06T03:21:18.862Z,1.40
2019-02-06T03:22:23.022Z,1.50
2019-02-06T03:23:27.217Z,1.50
2019-02-06T03:24:31.559Z,1.50
2019-02-06T03:25:35.783Z,1.40
2019-02-06T03:26:40.246Z,1.50
2019-02-06T03:27:45.013Z,1.50
2019-02-06T03:28:49.240Z,1.50
2019-02-06T03:29:53.699Z,1.30
2019-02-06T03:30:58.117Z,1.30
2019-02-06T03:32:02.370Z,1.30
2019-02-06T03:33:06.657Z,1.30
2019-02-06T03:34:10.808Z,1.30
2019-02-06T03:35:15.355Z,1.30
2019-02-06T03:36:19.622Z,1.20
2019-02-06T03:37:24.096Z,1.30
2019-02-06T03:38:28.407Z,1.40
2019-02-06T03:39:32.527Z,1.40
2019-02-06T03:40:36.827Z,1.30
2019-02-06T03:41:40.986Z,1.30
2019-02-06T03:42:45.607Z,1.20
2019-02-06T03:43:50.432Z,1.30
2019-02-06T03:44:54.896Z,1.30
2019-02-06T03:45:59.087Z,1.30
2019-02-06T03:47:03.271Z,1.30
2019-02-06T03:48:07.442Z,1.30
2019-02-06T03:49:11.793Z,1.20
2019-02-06T03:50:17.099Z,1.30
2019-02-06T03:51:21.313Z,1.30
2019-02-06T03:52:25.618Z,1.40
2019-02-06T03:53:29.747Z,1.30
2019-02-06T03:54:34.014Z,1.30
2019-02-06T03:55:38.183Z,1.30
2019-02-06T03:56:42.353Z,1.20
2019-02-06T03:57:46.657Z,1.30
2019-02-06T03:58:51.344Z,1.30
2019-02-06T03:59:55.529Z,1.30
2019-02-06T04:00:59.720Z,1.30
2019-02-06T04:02:03.922Z,1.20
2019-02-06T04:03:08.213Z,1.20
2019-02-06T04:04:12.459Z,1.30
2019-02-06T04:05:16.607Z,1.40
2019-02-06T04:06:20.735Z,1.40
2019-02-06T04:07:24.925Z,1.40
2019-02-06T04:08:29.120Z,1.40
2019-02-06T04:09:33.508Z,1.30
2019-02-06T04:10:37.895Z,1.30
2019-02-06T04:11:42.168Z,1.30
2019-02-06T04:12:46.414Z,1.30
2019-02-06T04:13:51.204Z,1.20
2019-02-06T04:14:56.137Z,1.30
2019-02-06T04:16:00.324Z,1.20
2019-02-06T04:17:05.047Z,1.30
2019-02-06T04:18:09.195Z,1.30
2019-02-06T04:19:13.418Z,1.30
2019-02-06T04:20:18.085Z,1.30
2019-02-06T04:21:22.255Z,1.40
2019-02-06T04:22:26.574Z,1.30
2019-02-06T04:23:30.821Z,1.30
2019-02-06T04:24:34.988Z,1.30
2019-02-06T04:25:39.217Z,1.30
2019-02-06T04:26:43.552Z,1.30
2019-02-06T04:27:47.844Z,1.40
2019-02-06T04:28:52.105Z,1.30
2019-02-06T04:29:56.615Z,1.30
2019-02-06T04:31:01.295Z,1.40
2019-02-06T04:32:05.964Z,1.40
2019-02-06T04:33:10.289Z,1.40
2019-02-06T04:34:14.639Z,1.40
2019-02-06T04:35:18.893Z,1.30
2019-02-06T04:36:23.106Z,1.30
2019-02-06T04:37:27.397Z,1.40
2019-02-06T04:38:31.625Z,1.40
2019-02-06T04:39:35.774Z,1.30
2019-02-06T04:40:40.135Z,1.30
2019-02-06T04:41:44.371Z,1.20
2019-02-06T04:42:48.581Z,1.20
2019-02-06T04:43:52.829Z,1.10
2019-02-06T04:44:57.111Z,1.20
2019-02-06T04:46:01.592Z,1.30
2019-02-06T04:47:05.943Z,1.20
2019-02-06T04:48:10.340Z,1.20
2019-02-06T04:49:14.696Z,1.30
2019-02-06T04:50:19.191Z,1.20
2019-02-06T04:51:23.537Z,1.20
2019-02-06T04:52:27.879Z,1.30
2019-02-06T04:53:32.000Z,1.30
2019-02-06T04:54:36.187Z,1.30
2019-02-06T04:55:40.459Z,1.30
2019-02-06T04:56:44.713Z,1.20
2019-02-06T04:57:49.239Z,1.20
2019-02-06T04:58:53.557Z,1.20
2019-02-06T04:59:57.910Z,1.20
2019-02-06T05:01:02.465Z,1.20
2019-02-06T05:02:07.075Z,1.20
2019-02-06T05:03:11.457Z,1.20
2019-02-06T05:04:16.113Z,1.20
2019-02-06T05:05:20.448Z,1.20
2019-02-06T05:06:24.663Z,1.20
2019-02-06T05:07:28.937Z,1.30
2019-02-06T05:08:33.248Z,1.20
2019-02-06T05:09:37.426Z,1.20
2019-02-06T05:10:41.724Z,1.20
2019-02-06T05:11:46.042Z,1.20
2019-02-06T05:12:50.355Z,1.10
2019-02-06T05:13:54.563Z,1.10
2019-02-06T05:14:58.875Z,1.20
2019-02-06T05:16:03.084Z,1.10
2019-02-06T05:17:07.816Z,1.10
2019-02-06T05:18:12.007Z,1.10
2019-02-06T05:19:16.192Z,1.20
2019-02-06T05:20:26.049Z,1.20
2019-02-06T05:21:30.278Z,1.20
2019-02-06T05:22:34.437Z,1.30
2019-02-06T05:23:38.711Z,1.30
2019-02-06T05:24:43.035Z,1.20
2019-02-06T05:25:47.232Z,1.20
2019-02-06T05:26:51.443Z,1.20
2019-02-06T05:27:55.797Z,1.20
2019-02-06T05:29:00.078Z,1.20
2019-02-06T05:30:04.677Z,1.30
2019-02-06T05:31:08.979Z,1.30
2019-02-06T05:32:13.275Z,1.30
2019-02-06T05:33:17.672Z,1.40
2019-02-06T05:34:22.206Z,1.30
2019-02-06T05:35:26.541Z,1.30
2019-02-06T05:36:30.726Z,1.30
2019-02-06T05:37:34.899Z,1.30
2019-02-06T05:38:39.117Z,1.30
2019-02-06T05:39:43.404Z,1.20
2019-02-06T05:40:47.666Z,1.20
2019-02-06T05:41:51.781Z,1.20
2019-02-06T05:42:56.091Z,1.20
2019-02-06T05:44:00.366Z,1.20
2019-02-06T05:45:05.741Z,1.20
2019-02-06T05:46:09.923Z,1.30
2019-02-06T05:47:14.085Z,1.30
2019-02-06T05:48:18.575Z,1.30
2019-02-06T05:49:23.370Z,1.30
2019-02-06T05:50:27.723Z,1.20
2019-02-06T05:51:32.028Z,1.20
2019-02-06T05:52:36.337Z,1.10
2019-02-06T05:53:40.760Z,1.10
2019-02-06T05:54:45.103Z,1.20
2019-02-06T05:55:49.493Z,1.20
2019-02-06T05:56:53.761Z,1.20
2019-02-06T05:57:58.083Z,1.30
2019-02-06T05:59:02.355Z,1.30
2019-02-06T06:00:11.063Z,1.30
2019-02-06T06:01:15.969Z,1.30
2019-02-06T06:02:20.311Z,1.30
2019-02-06T06:03:24.467Z,1.30
2019-02-06T06:04:29.023Z,1.30
2019-02-06T06:05:33.806Z,1.30
2019-02-06T06:06:37.989Z,1.20
2019-02-06T06:07:45.151Z,1.30
2019-02-06T06:08:48.218Z,1.20
2019-02-06T06:09:52.438Z,1.30
2019-02-06T06:10:56.682Z,1.40
2019-02-06T06:12:01.004Z,1.40
2019-02-06T06:13:05.321Z,1.30
2019-02-06T06:14:09.569Z,1.40
2019-02-06T06:15:15.495Z,1.40
2019-02-06T06:16:19.780Z,1.40
2019-02-06T06:17:24.139Z,1.30
2019-02-06T06:18:28.528Z,1.30
2019-02-06T06:19:32.799Z,1.30
2019-02-06T06:20:37.467Z,1.30
2019-02-06T06:21:41.885Z,1.30
2019-02-06T06:22:46.234Z,1.30
2019-02-06T06:23:50.577Z,1.20
2019-02-06T06:24:54.894Z,1.20
2019-02-06T06:25:59.246Z,1.20
2019-02-06T06:27:03.477Z,1.20
2019-02-06T06:28:07.627Z,1.30
2019-02-06T06:29:11.874Z,1.40
2019-02-06T06:30:17.549Z,1.40
2019-02-06T06:31:21.694Z,1.30
2019-02-06T06:32:25.963Z,1.20
2019-02-06T06:33:30.219Z,1.20
2019-02-06T06:34:34.475Z,1.20
2019-02-06T06:35:39.026Z,1.30
2019-02-06T06:36:43.833Z,1.30
2019-02-06T06:37:57.553Z,1.30
2019-02-06T06:38:54.169Z,1.40
2019-02-06T06:39:58.450Z,1.40
2019-02-06T06:41:02.685Z,1.40
2019-02-06T06:42:07.074Z,1.50
2019-02-06T06:43:11.356Z,1.50
2019-02-06T06:44:15.693Z,1.40
2019-02-06T06:45:21.750Z,1.40
2019-02-06T06:46:25.937Z,1.40
2019-02-06T06:47:30.292Z,1.50
2019-02-06T06:48:34.647Z,1.40
2019-02-06T06:49:39.231Z,1.40
2019-02-06T06:50:43.354Z,1.30
2019-02-06T06:51:47.857Z,1.30
2019-02-06T06:52:52.545Z,1.40
2019-02-06T06:53:56.688Z,1.30
2019-02-06T06:55:00.844Z,1.30
2019-02-06T06:56:05.294Z,1.20
2019-02-06T06:57:12.269Z,1.10
2019-02-06T06:58:15.604Z,1.10
2019-02-06T06:59:20.029Z,1.10
2019-02-06T07:00:26.453Z,1.10
2019-02-06T07:01:30.787Z,1.10
2019-02-06T07:02:35.145Z,1.20
2019-02-06T07:03:39.423Z,1.20
2019-02-06T07:04:43.694Z,1.30
2019-02-06T07:05:48.290Z,1.40
2019-02-06T07:06:52.493Z,1.40
2019-02-06T07:08:08.833Z,1.40
2019-02-06T07:09:03.405Z,1.40
2019-02-06T07:10:08.677Z,1.30
2019-02-06T07:11:14.417Z,1.30
2019-02-06T07:12:19.086Z,1.30
2019-02-06T07:13:23.369Z,1.30
2019-02-06T07:14:27.534Z,1.40
2019-02-06T07:15:33.823Z,1.20
2019-02-06T07:16:38.096Z,1.10
2019-02-06T07:17:42.394Z,1.20
2019-02-06T07:18:46.675Z,1.20
2019-02-06T07:19:50.937Z,1.30
2019-02-06T07:20:55.249Z,1.30
2019-02-06T07:21:59.527Z,1.30
2019-02-06T07:23:03.733Z,1.30
2019-02-06T07:24:07.871Z,1.30
2019-02-06T07:25:12.865Z,1.20
2019-02-06T07:26:17.026Z,1.20
2019-02-06T07:27:21.565Z,1.20
2019-02-06T07:28:25.904Z,1.20
2019-02-06T07:29:30.063Z,1.10
2019-02-06T07:30:35.857Z,1.00
2019-02-06T07:31:39.991Z,1.00
2019-02-06T07:32:44.275Z,0.90
2019-02-06T07:33:48.655Z,1.00
2019-02-06T07:34:53.004Z,1.10
2019-02-06T07:35:57.285Z,1.10
2019-02-06T07:37:01.607Z,1.20
2019-02-06T07:38:05.799Z,1.20
2019-02-06T07:39:10.084Z,1.20
2019-02-06T07:40:14.958Z,1.20
2019-02-06T07:41:19.720Z,1.20
2019-02-06T07:42:24.251Z,1.20
2019-02-06T07:43:29.046Z,1.30
2019-02-06T07:44:33.370Z,1.30
2019-02-06T07:45:37.845Z,1.30
2019-02-06T07:46:42.142Z,1.30
2019-02-06T07:47:46.565Z,1.30
2019-02-06T07:48:50.785Z,1.40
2019-02-06T07:49:55.192Z,1.30
2019-02-06T07:50:59.345Z,1.30
2019-02-06T07:52:03.613Z,1.40
2019-02-06T07:53:07.915Z,1.40
2019-02-06T07:54:12.383Z,1.50
2019-02-06T07:55:16.541Z,1.50
2019-02-06T07:56:20.821Z,1.50
2019-02-06T07:57:25.079Z,1.50
2019-02-06T07:58:29.743Z,1.40
2019-02-06T07:59:34.655Z,1.40
2019-02-06T08:00:38.957Z,1.40
2019-02-06T08:01:43.500Z,1.30
2019-02-06T08:02:47.667Z,1.30
2019-02-06T08:03:51.985Z,1.40
2019-02-06T08:04:56.133Z,1.40
2019-02-06T08:06:00.446Z,1.40
2019-02-06T08:07:05.093Z,1.50
2019-02-06T08:08:09.433Z,1.50
2019-02-06T08:09:13.666Z,1.50
2019-02-06T08:10:20.687Z,1.60
2019-02-06T08:11:24.978Z,1.40
2019-02-06T08:12:29.306Z,1.10
2019-02-06T08:13:33.455Z,1.10
2019-02-06T08:14:37.915Z,1.20
2019-02-06T08:15:42.447Z,1.30
2019-02-06T08:16:46.663Z,1.40
2019-02-06T08:17:51.087Z,1.40
2019-02-06T08:18:55.403Z,1.30
2019-02-06T08:19:59.589Z,1.30
2019-02-06T08:21:03.765Z,1.30
2019-02-06T08:22:07.996Z,1.30
2019-02-06T08:23:12.186Z,1.30
2019-02-06T08:24:16.317Z,1.40
2019-02-06T08:25:20.797Z,1.50
2019-02-06T08:26:25.092Z,1.50
2019-02-06T08:27:29.264Z,1.60
2019-02-06T08:28:33.879Z,1.60
2019-02-06T08:29:38.064Z,1.60
2019-02-06T08:30:42.746Z,1.40
2019-02-06T08:31:47.102Z,1.40
2019-02-06T08:32:51.479Z,1.40
2019-02-06T08:33:55.777Z,1.40
2019-02-06T08:35:00.009Z,1.40
2019-02-06T08:36:04.329Z,1.50
2019-02-06T08:37:08.599Z,1.60
2019-02-06T08:38:12.773Z,1.60
2019-02-06T08:39:17.097Z,1.70
2019-02-06T08:40:23.016Z,1.80
2019-02-06T08:41:27.367Z,1.80
2019-02-06T08:42:31.594Z,1.80
2019-02-06T08:43:35.843Z,1.80
2019-02-06T08:44:40.173Z,1.90
2019-02-06T08:45:44.541Z,1.80
2019-02-06T08:46:49.098Z,1.80
2019-02-06T08:47:54.212Z,1.80
2019-02-06T08:48:58.573Z,1.70
2019-02-06T08:50:02.843Z,1.70
2019-02-06T08:51:07.264Z,1.70
2019-02-06T08:52:11.425Z,1.80
2019-02-06T08:53:15.682Z,1.80
2019-02-06T08:54:20.357Z,1.80
2019-02-06T08:55:27.402Z,1.80
2019-02-06T08:56:31.635Z,1.70
2019-02-06T08:57:35.791Z,1.60
2019-02-06T08:58:40.083Z,1.50
2019-02-06T08:59:44.362Z,1.50
2019-02-06T09:00:48.545Z,1.50
2019-02-06T09:01:52.862Z,1.60
2019-02-06T09:02:57.663Z,1.60
2019-02-06T09:04:02.386Z,1.70
2019-02-06T09:05:07.689Z,1.80
2019-02-06T09:06:12.110Z,1.80
2019-02-06T09:07:16.461Z,1.80
2019-02-06T09:08:20.873Z,1.90
2019-02-06T09:09:25.092Z,1.80
2019-02-06T09:10:29.460Z,1.90
2019-02-06T09:11:33.771Z,1.90
2019-02-06T09:12:37.975Z,1.90
2019-02-06T09:13:42.275Z,1.90
2019-02-06T09:14:46.544Z,1.90
2019-02-06T09:15:50.871Z,1.90
2019-02-06T09:16:55.197Z,2.00
2019-02-06T09:17:59.447Z,1.80
2019-02-06T09:19:03.832Z,1.80
2019-02-06T09:20:11.482Z,1.80
2019-02-06T09:21:15.987Z,1.90
2019-02-06T09:22:20.245Z,1.90
2019-02-06T09:23:24.601Z,1.90
2019-02-06T09:24:28.760Z,1.90
2019-02-06T09:25:32.971Z,2.00
2019-02-06T09:26:37.239Z,2.00
2019-02-06T09:27:41.630Z,2.00
2019-02-06T09:28:46.001Z,2.00
2019-02-06T09:29:50.257Z,2.10
2019-02-06T09:30:54.929Z,2.10
2019-02-06T09:31:59.542Z,2.00
2019-02-06T09:33:04.851Z,2.00
2019-02-06T09:34:09.725Z,1.90
2019-02-06T09:35:14.638Z,1.90
2019-02-06T09:36:19.323Z,1.80
2019-02-06T09:37:23.767Z,1.80
2019-02-06T09:38:28.041Z,1.90
2019-02-06T09:39:32.363Z,1.80
2019-02-06T09:40:36.820Z,1.80
2019-02-06T09:41:41.127Z,1.70
2019-02-06T09:42:45.407Z,1.80
2019-02-06T09:43:49.595Z,1.80
2019-02-06T09:44:54.095Z,1.70
2019-02-06T09:45:58.364Z,1.70
2019-02-06T09:47:02.583Z,1.80
2019-02-06T09:48:07.004Z,1.90
2019-02-06T09:49:11.392Z,1.90
2019-02-06T09:50:21.755Z,1.90
2019-02-06T09:51:25.995Z,1.90
2019-02-06T09:52:30.266Z,2.00
2019-02-06T09:53:34.871Z,2.00
2019-02-06T09:54:39.231Z,2.00
2019-02-06T09:55:43.359Z,1.90
2019-02-06T09:56:50.518Z,1.70
2019-02-06T09:57:53.637Z,1.60
2019-02-06T09:58:57.874Z,1.50
2019-02-06T10:00:02.220Z,1.40
2019-02-06T10:01:06.463Z,1.40
2019-02-06T10:02:10.635Z,1.50
2019-02-06T10:03:14.845Z,1.70
2019-02-06T10:04:19.249Z,1.70
2019-02-06T10:05:23.824Z,1.70
2019-02-06T10:06:28.030Z,1.80
2019-02-06T10:07:32.269Z,1.80
2019-02-06T10:08:36.969Z,1.80
2019-02-06T10:09:41.541Z,1.80
2019-02-06T10:10:45.854Z,1.70
2019-02-06T10:11:50.001Z,1.60
2019-02-06T10:12:54.295Z,1.60
2019-02-06T10:13:58.573Z,1.70
2019-02-06T10:15:02.935Z,1.70
2019-02-06T10:16:07.279Z,1.70
2019-02-06T10:17:11.513Z,1.70
2019-02-06T10:18:15.827Z,1.80
2019-02-06T10:19:19.992Z,1.80
2019-02-06T10:20:25.913Z,1.90
2019-02-06T10:21:30.073Z,1.90
2019-02-06T10:22:34.391Z,2.00
2019-02-06T10:23:38.612Z,2.00
2019-02-06T10:24:43.165Z,2.00
2019-02-06T10:25:47.712Z,2.00
2019-02-06T10:26:52.009Z,2.10
2019-02-06T10:27:56.233Z,2.10
2019-02-06T10:29:00.572Z,2.10
2019-02-06T10:30:06.559Z,2.10
2019-02-06T10:31:10.835Z,2.10
2019-02-06T10:32:15.056Z,2.20
2019-02-06T10:33:19.583Z,2.20
2019-02-06T10:34:24.167Z,2.20
2019-02-06T10:35:28.474Z,2.10
2019-02-06T10:36:32.976Z,2.20
2019-02-06T10:37:37.141Z,2.10
2019-02-06T10:38:41.455Z,2.10
2019-02-06T10:39:45.639Z,2.00
2019-02-06T10:40:50.106Z,2.10
2019-02-06T10:41:54.734Z,2.10
2019-02-06T10:42:59.047Z,2.10
2019-02-06T10:44:03.167Z,2.00
2019-02-06T10:45:08.309Z,2.00
2019-02-06T10:46:12.591Z,2.00
2019-02-06T10:47:16.852Z,2.00
2019-02-06T10:48:21.409Z,2.10
2019-02-06T10:49:25.591Z,2.10
2019-02-06T10:50:32.725Z,2.10
2019-02-06T10:51:36.892Z,2.10
2019-02-06T10:52:41.251Z,2.00
2019-02-06T10:53:45.527Z,2.00
2019-02-06T10:54:49.852Z,2.00
2019-02-06T10:55:54.225Z,2.00
2019-02-06T10:56:58.701Z,2.00
2019-02-06T10:58:03.451Z,2.10
2019-02-06T10:59:07.755Z,2.00
2019-02-06T11:00:21.681Z,2.00
2019-02-06T11:01:26.017Z,2.00
2019-02-06T11:02:30.652Z,2.00
2019-02-06T11:03:34.918Z,2.10
2019-02-06T11:04:39.131Z,2.00
2019-02-06T11:05:43.302Z,2.00
2019-02-06T11:06:47.804Z,2.00
2019-02-06T11:07:52.059Z,2.10
2019-02-06T11:08:56.258Z,2.10
2019-02-06T11:10:00.566Z,2.00
2019-02-06T11:11:05.097Z,1.90
2019-02-06T11:12:09.466Z,2.00
2019-02-06T11:13:13.645Z,2.00
2019-02-06T11:14:17.902Z,2.00
2019-02-06T11:15:23.123Z,1.90
2019-02-06T11:16:27.796Z,1.90
2019-02-06T11:17:32.089Z,2.00
2019-02-06T11:18:36.413Z,2.00
2019-02-06T11:19:43.035Z,2.10
2019-02-06T11:20:46.734Z,2.10
2019-02-06T11:21:51.113Z,2.20
2019-02-06T11:22:55.779Z,2.20
2019-02-06T11:24:00.069Z,2.20
2019-02-06T11:25:06.078Z,2.20
2019-02-06T11:26:10.321Z,2.10
2019-02-06T11:27:14.744Z,2.10
2019-02-06T11:28:18.925Z,2.10
2019-02-06T11:29:23.072Z,2.20
2019-02-06T11:30:28.345Z,2.20
2019-02-06T11:31:32.649Z,2.20
2019-02-06T11:32:36.995Z,2.20
2019-02-06T11:33:41.608Z,2.30
2019-02-06T11:34:45.807Z,2.20
2019-02-06T11:35:50.127Z,2.20
2019-02-06T11:36:54.811Z,2.20
2019-02-06T11:37:59.064Z,2.20
2019-02-06T11:39:05.041Z,2.20
2019-02-06T11:40:15.267Z,2.30
2019-02-06T11:41:18.869Z,2.30
2019-02-06T11:42:23.003Z,2.30
2019-02-06T11:43:27.323Z,2.30
2019-02-06T11:44:31.484Z,2.30
2019-02-06T11:45:35.999Z,2.30
2019-02-06T11:46:41.419Z,2.30
2019-02-06T11:47:45.827Z,2.20
2019-02-06T11:48:50.221Z,2.20
2019-02-06T11:49:57.026Z,2.30
2019-02-06T11:51:01.772Z,2.20
2019-02-06T11:52:06.573Z,2.10
2019-02-06T11:53:19.907Z,2.10
2019-02-06T11:54:24.322Z,2.00
2019-02-06T11:55:28.690Z,2.10
2019-02-06T11:56:32.901Z,2.20
2019-02-06T11:57:37.035Z,2.20
2019-02-06T11:58:41.244Z,2.10
2019-02-06T11:59:45.894Z,2.10
2019-02-06T12:00:59.009Z,2.20
2019-02-06T12:02:03.280Z,2.20
2019-02-06T12:03:07.713Z,2.30
2019-02-06T12:04:11.822Z,2.30
2019-02-06T12:05:16.090Z,2.20
2019-02-06T12:06:20.397Z,2.20
2019-02-06T12:07:24.628Z,2.30
2019-02-06T12:08:31.161Z,2.20
2019-02-06T12:09:34.848Z,2.30
2019-02-06T12:10:39.111Z,2.30
2019-02-06T12:11:43.441Z,2.30
2019-02-06T12:12:48.307Z,2.40
2019-02-06T12:13:52.597Z,2.20
2019-02-06T12:14:56.906Z,2.10
2019-02-06T12:16:01.221Z,2.10
2019-02-06T12:17:05.520Z,2.10
2019-02-06T12:18:10.020Z,2.20
2019-02-06T12:19:14.448Z,2.10
2019-02-06T12:20:20.071Z,2.10
2019-02-06T12:21:24.271Z,2.20
2019-02-06T12:22:28.607Z,2.20
2019-02-06T12:23:32.905Z,2.20
2019-02-06T12:24:37.157Z,2.20
2019-02-06T12:25:41.489Z,2.10
2019-02-06T12:26:45.845Z,2.00
2019-02-06T12:27:50.500Z,2.10
2019-02-06T12:28:54.697Z,2.10
2019-02-06T12:29:58.907Z,2.00
2019-02-06T12:31:03.044Z,1.90
2019-02-06T12:32:07.250Z,1.90
2019-02-06T12:33:11.554Z,2.00
2019-02-06T12:34:15.858Z,2.00
2019-02-06T12:35:20.107Z,2.10
2019-02-06T12:36:24.495Z,2.20
2019-02-06T12:37:28.689Z,2.20
2019-02-06T12:38:32.971Z,2.20
2019-02-06T12:39:37.279Z,2.20
2019-02-06T12:40:41.405Z,2.20
2019-02-06T12:41:45.782Z,2.30
2019-02-06T12:42:50.492Z,2.30
2019-02-06T12:43:54.758Z,2.20
2019-02-06T12:44:59.251Z,2.00
2019-02-06T12:46:03.668Z,2.10
2019-02-06T12:47:07.973Z,2.10
2019-02-06T12:48:12.259Z,2.10
2019-02-06T12:49:16.439Z,2.10
2019-02-06T12:50:20.867Z,2.10
2019-02-06T12:51:30.748Z,2.20
2019-02-06T12:52:35.015Z,2.20
2019-02-06T12:53:39.204Z,2.20
2019-02-06T12:54:43.387Z,2.20
2019-02-06T12:55:47.552Z,2.10
2019-02-06T12:56:52.201Z,2.00
2019-02-06T12:57:56.436Z,2.10
2019-02-06T12:59:00.715Z,2.20
2019-02-06T13:00:08.945Z,2.20
2019-02-06T13:01:13.325Z,2.20
2019-02-06T13:02:17.563Z,2.20
2019-02-06T13:03:21.801Z,2.20
2019-02-06T13:04:26.085Z,2.00
2019-02-06T13:05:31.105Z,2.00
2019-02-06T13:06:35.305Z,2.10
2019-02-06T13:07:39.586Z,2.20
2019-02-06T13:08:43.966Z,2.10
2019-02-06T13:09:48.285Z,2.00
2019-02-06T13:10:52.629Z,2.10
2019-02-06T13:11:56.904Z,2.10
2019-02-06T13:13:01.577Z,2.00
2019-02-06T13:14:05.979Z,1.90
2019-02-06T13:15:12.139Z,1.90
2019-02-06T13:16:16.381Z,1.70
2019-02-06T13:17:20.614Z,1.80
2019-02-06T13:18:24.969Z,1.80
2019-02-06T13:19:29.193Z,1.90
2019-02-06T13:20:33.599Z,1.70
2019-02-06T13:21:37.993Z,1.60
2019-02-06T13:22:42.315Z,1.80
2019-02-06T13:23:49.378Z,1.90
2019-02-06T13:24:52.335Z,1.90
2019-02-06T13:25:56.637Z,2.00
2019-02-06T13:27:00.939Z,2.00
2019-02-06T13:28:05.501Z,2.10
2019-02-06T13:29:10.135Z,2.10
2019-02-06T13:30:23.751Z,2.10
2019-02-06T13:31:28.186Z,2.00
2019-02-06T13:32:32.711Z,2.00
2019-02-06T13:33:37.112Z,2.00
2019-02-06T13:34:41.675Z,2.00
2019-02-06T13:35:45.963Z,2.00
2019-02-06T13:36:50.198Z,2.00
2019-02-06T13:37:54.667Z,2.00
2019-02-06T13:38:58.864Z,2.00
2019-02-06T13:40:03.055Z,2.00
2019-02-06T13:41:07.463Z,2.00
2019-02-06T13:42:11.618Z,2.00
2019-02-06T13:43:16.178Z,2.00
2019-02-06T13:44:20.346Z,2.00
2019-02-06T13:45:30.255Z,2.00
2019-02-06T13:46:34.693Z,2.10
2019-02-06T13:47:39.020Z,2.10
2019-02-06T13:48:43.551Z,2.10
2019-02-06T13:49:48.416Z,2.10
2019-02-06T13:50:52.679Z,2.10
2019-02-06T13:51:56.919Z,2.10
2019-02-06T13:53:01.227Z,2.20
2019-02-06T13:54:05.726Z,2.20
2019-02-06T13:55:11.171Z,2.20
2019-02-06T13:56:15.375Z,2.20
2019-02-06T13:57:19.644Z,2.10
2019-02-06T13:58:23.980Z,2.10
2019-02-06T13:59:28.125Z,2.00
2019-02-06T14:00:33.812Z,1.90
2019-02-06T14:01:38.076Z,2.00
2019-02-06T14:02:42.348Z,2.10
2019-02-06T14:03:46.521Z,2.00
2019-02-06T14:04:50.795Z,2.10
2019-02-06T14:05:55.584Z,2.20
2019-02-06T14:06:59.889Z,2.20
2019-02-06T14:08:10.145Z,2.10
2019-02-06T14:09:22.600Z,2.10
2019-02-06T14:10:42.714Z,2.20
2019-02-06T14:11:47.007Z,2.20
2019-02-06T14:12:51.319Z,2.10
2019-02-06T14:13:55.849Z,2.00
2019-02-06T14:15:00.182Z,2.10
2019-02-06T14:16:06.370Z,2.10
2019-02-06T14:17:10.893Z,2.10
2019-02-06T14:18:15.263Z,2.20
2019-02-06T14:19:19.629Z,2.20
2019-02-06T14:20:23.987Z,2.20
2019-02-06T14:21:28.659Z,2.30